Montreal Saint-Hubert Longueuil Airport

Airport
ICAO code: 
CYHU
IATA Code: 
YHU
Summary
ICAO Region: 
NAM
Territory: 
Location: 
Saint Hubert, Quebec
Serving: 
Montreal
Elevation: 
90 ft
Coordinates: 
Aerial View: 
45° 31' 5.016" N, 73° 25' 0.984" W
Metar
Observation
CYHU 271014Z AUTO 28015G23KT 9SM -SN OVC029 M03/M07 A2963 RMK SLP038
Station
Saint Hubert Airport
Date/Time
2021-11-27 10:14:00
Wind direction
280°
Wind speed
15 kts
Lowest cloud amount
overcast
Temperature
-3°C
Dew point
-7°C
Humidity
73%
Weather condition
light snow

Montréal Saint-Hubert Longueuil Airport, also called Montréal/Saint-Hubert Airport, is located in the Saint-Hubert borough of Longueuil, Quebec.

Climatology

Humid continental climate (Köppen climate classification Dfb)

Runways

Designator Length Width Surface Rops
10/28 853 46 ASP Yes/Yes
06R/24L 1195 30 ASP Yes/Yes
06L/24R 2390 46 ASP Yes/Yes
Airport map: 
Aerial View: 

Accidents and Serious Incidents at or in the vicinity of CYHU

SKYbrary Partners:

Safety knowledge contributed by: